createdAt,value
2022-09-25T00:01:38.385Z,99.82
2022-09-25T00:05:21.164Z,99.96
2022-09-25T00:09:07.809Z,99.57
2022-09-25T00:12:52.543Z,98.93
2022-09-25T00:16:35.403Z,98.94
2022-09-25T00:20:24.103Z,98.45
2022-09-25T00:24:08.288Z,97.95
2022-09-25T00:27:54.365Z,99.43
2022-09-25T00:31:37.128Z,99.92
2022-09-25T00:35:21.321Z,99.12
2022-09-25T00:39:04.062Z,97.74
2022-09-25T00:42:46.883Z,97.18
2022-09-25T00:46:32.087Z,96.61
2022-09-25T00:50:29.627Z,96.62
2022-09-25T00:54:17.876Z,96.27
2022-09-25T00:58:02.013Z,96.43
2022-09-25T01:01:45.196Z,96.08
2022-09-25T01:05:30.721Z,96.42
2022-09-25T01:09:13.450Z,96.46
2022-09-25T01:12:57.099Z,96.16
2022-09-25T01:16:42.824Z,95.98
2022-09-25T01:20:37.169Z,95.21
2022-09-25T01:24:32.850Z,96.05
2022-09-25T01:28:38.519Z,95.71
2022-09-25T01:32:24.300Z,95.63
2022-09-25T01:36:12.157Z,95.22
2022-09-25T01:39:59.451Z,93.78
2022-09-25T01:43:45.828Z,93.56
2022-09-25T01:47:30.159Z,93.97
2022-09-25T01:51:16.746Z,93.04
2022-09-25T01:55:08.477Z,93.07
2022-09-25T01:58:55.956Z,93.14
2022-09-25T02:02:42.494Z,92.87
2022-09-25T02:06:25.631Z,92.91
2022-09-25T02:10:13.729Z,92.98
2022-09-25T02:14:00.967Z,92.86
2022-09-25T02:18:05.218Z,93.37
2022-09-25T02:21:51.824Z,92.26
2022-09-25T02:25:38.543Z,91.65
2022-09-25T02:29:23.277Z,91.54
2022-09-25T02:33:08.445Z,91.62
2022-09-25T02:36:51.327Z,92.24
2022-09-25T02:40:38.764Z,92.24
2022-09-25T02:44:32.595Z,92.44
2022-09-25T02:48:24.889Z,94.38
2022-09-25T02:52:12.402Z,95.55
2022-09-25T02:56:00.945Z,96.52
2022-09-25T02:59:48.380Z,96.91
2022-09-25T03:03:32.378Z,96.30
2022-09-25T03:07:15.461Z,95.30
2022-09-25T03:10:59.210Z,95.48
2022-09-25T03:14:41.913Z,95.50
2022-09-25T03:18:28.393Z,95.05
2022-09-25T03:22:12.040Z,93.81
2022-09-25T03:25:55.639Z,93.93
2022-09-25T03:29:38.389Z,93.67
2022-09-25T03:33:21.074Z,93.02
2022-09-25T03:37:05.116Z,91.60
2022-09-25T03:40:47.888Z,90.35
2022-09-25T03:44:30.662Z,91.35
2022-09-25T03:48:13.366Z,91.73
2022-09-25T03:51:56.125Z,91.39
2022-09-25T03:55:40.195Z,90.87
2022-09-25T03:59:22.909Z,91.38
2022-09-25T04:03:05.646Z,90.82
2022-09-25T04:06:48.432Z,91.20
2022-09-25T04:10:31.391Z,91.81
2022-09-25T04:14:15.822Z,92.14
2022-09-25T04:18:03.648Z,92.49
2022-09-25T04:21:49.854Z,91.38
2022-09-25T04:25:32.684Z,92.03
2022-09-25T04:29:18.102Z,92.25
2022-09-25T04:33:18.268Z,91.28
2022-09-25T04:37:01.231Z,90.97
2022-09-25T04:40:45.996Z,91.73
2022-09-25T04:44:31.029Z,92.12
2022-09-25T04:48:13.907Z,92.29
2022-09-25T04:51:56.955Z,92.55
2022-09-25T04:55:39.655Z,93.31
2022-09-25T04:59:22.469Z,92.75
2022-09-25T05:03:06.719Z,92.31
2022-09-25T05:06:51.512Z,92.51
2022-09-25T05:10:35.453Z,93.07
2022-09-25T05:14:18.125Z,93.79
2022-09-25T05:18:02.217Z,94.78
2022-09-25T05:21:46.295Z,94.92
2022-09-25T05:25:28.990Z,94.69
2022-09-25T05:29:12.201Z,94.73
2022-09-25T05:32:58.100Z,94.40
2022-09-25T05:36:40.911Z,93.81
2022-09-25T05:40:25.357Z,93.56
2022-09-25T05:44:09.987Z,92.52
2022-09-25T05:48:02.063Z,91.76
2022-09-25T05:51:45.007Z,91.32
2022-09-25T05:55:29.169Z,91.30
2022-09-25T05:59:12.053Z,91.64
2022-09-25T06:02:55.044Z,90.75
2022-09-25T06:06:37.851Z,91.22
2022-09-25T06:10:21.037Z,92.15
2022-09-25T06:14:05.254Z,91.46
2022-09-25T06:17:48.235Z,90.68
2022-09-25T06:21:30.987Z,90.86
2022-09-25T06:25:15.750Z,90.75
2022-09-25T06:29:03.226Z,91.52
2022-09-25T06:32:47.639Z,89.95
2022-09-25T06:36:30.402Z,89.63
2022-09-25T06:40:13.237Z,89.63
2022-09-25T06:43:56.045Z,90.21
2022-09-25T06:47:38.946Z,91.22
2022-09-25T06:51:23.918Z,90.27
2022-09-25T06:55:07.531Z,90.33
2022-09-25T06:58:50.400Z,91.13
2022-09-25T07:02:50.671Z,91.70
2022-09-25T07:06:37.340Z,91.52
2022-09-25T07:10:20.151Z,90.91
2022-09-25T07:14:03.001Z,89.84
2022-09-25T07:17:45.814Z,89.23
2022-09-25T07:21:30.751Z,88.74
2022-09-25T07:25:15.036Z,89.33
2022-09-25T07:29:00.214Z,88.38
2022-09-25T07:32:45.361Z,87.44
2022-09-25T07:36:28.631Z,88.06
2022-09-25T07:40:13.387Z,88.29
2022-09-25T07:44:18.042Z,88.85
2022-09-25T07:48:03.297Z,86.96
2022-09-25T07:51:48.463Z,86.37
2022-09-25T07:55:31.210Z,86.28
2022-09-25T07:59:15.438Z,83.66
2022-09-25T08:03:00.068Z,83.29
2022-09-25T08:06:42.847Z,82.69
2022-09-25T08:10:25.895Z,84.35
2022-09-25T08:14:08.678Z,83.22
2022-09-25T08:17:53.044Z,83.70
2022-09-25T08:21:36.600Z,85.72
2022-09-25T08:25:19.460Z,85.87
2022-09-25T08:29:02.427Z,85.78
2022-09-25T08:32:45.194Z,85.51
2022-09-25T08:36:29.708Z,86.58
2022-09-25T08:40:18.913Z,85.28
2022-09-25T08:44:05.272Z,84.28
2022-09-25T08:48:06.596Z,82.90
2022-09-25T08:51:53.013Z,82.72
2022-09-25T08:55:54.757Z,84.55
2022-09-25T08:59:40.549Z,83.36
2022-09-25T09:03:24.336Z,83.26
2022-09-25T09:07:26.413Z,83.06
2022-09-25T09:11:14.045Z,84.32
2022-09-25T09:15:04.598Z,82.77
2022-09-25T09:18:47.356Z,83.28
2022-09-25T09:22:33.733Z,83.12
2022-09-25T09:26:18.994Z,83.41
2022-09-25T09:30:12.049Z,84.28
2022-09-25T09:34:02.584Z,83.44
2022-09-25T09:37:54.122Z,83.87
2022-09-25T09:41:46.077Z,83.49
2022-09-25T09:45:33.897Z,82.78
2022-09-25T09:49:19.680Z,81.02
2022-09-25T09:53:05.781Z,79.69
2022-09-25T09:56:51.246Z,78.81
2022-09-25T10:00:34.787Z,78.14
2022-09-25T10:04:19.213Z,77.29
2022-09-25T10:08:03.497Z,75.57
2022-09-25T10:11:48.273Z,75.29
2022-09-25T10:15:35.142Z,74.50
2022-09-25T10:19:20.161Z,73.23
2022-09-25T10:23:06.145Z,72.47
2022-09-25T10:26:49.062Z,71.97
2022-09-25T10:30:31.855Z,69.63
2022-09-25T10:34:22.129Z,69.21
2022-09-25T10:38:08.014Z,69.65
2022-09-25T10:41:50.885Z,69.81
2022-09-25T10:45:35.391Z,69.50
2022-09-25T10:49:37.533Z,69.67
2022-09-25T10:53:30.559Z,68.47
2022-09-25T10:57:18.681Z,66.58
2022-09-25T11:01:03.511Z,66.79
2022-09-25T11:04:46.360Z,67.85
2022-09-25T11:08:31.611Z,67.96
2022-09-25T11:12:18.697Z,67.67
2022-09-25T11:16:02.592Z,67.63
2022-09-25T11:19:45.284Z,66.55
2022-09-25T11:23:35.181Z,66.01
2022-09-25T11:27:22.149Z,66.34
2022-09-25T11:31:13.443Z,67.16
2022-09-25T11:35:21.202Z,67.50
2022-09-25T11:39:25.384Z,67.97
2022-09-25T11:43:10.539Z,67.10
2022-09-25T11:46:59.904Z,66.02
2022-09-25T11:50:56.874Z,63.78
2022-09-25T11:54:49.565Z,63.35
2022-09-25T11:58:44.575Z,63.70
2022-09-25T12:02:37.528Z,63.20
2022-09-25T12:06:53.577Z,63.49
2022-09-25T12:10:48.534Z,62.90
2022-09-25T12:14:35.684Z,63.87
2022-09-25T12:18:27.562Z,64.45
2022-09-25T12:22:16.436Z,65.49
2022-09-25T12:26:15.076Z,64.57
2022-09-25T12:30:19.264Z,63.49
2022-09-25T12:34:08.704Z,63.41
2022-09-25T12:37:55.178Z,63.61
2022-09-25T12:41:42.759Z,64.73
2022-09-25T12:45:31.168Z,65.64
2022-09-25T12:49:19.300Z,66.45
2022-09-25T12:53:11.019Z,67.20
2022-09-25T12:56:59.266Z,68.03
2022-09-25T13:00:44.175Z,68.68
2022-09-25T13:04:49.400Z,69.40
2022-09-25T13:08:35.236Z,70.23
2022-09-25T13:12:33.156Z,70.95
2022-09-25T13:16:16.949Z,71.26
2022-09-25T13:20:33.777Z,71.87
2022-09-25T13:24:18.245Z,72.94
2022-09-25T13:28:08.961Z,73.26
2022-09-25T13:31:53.517Z,74.49
2022-09-25T13:35:36.275Z,75.36
2022-09-25T13:39:40.493Z,76.26
2022-09-25T13:43:26.692Z,78.49
2022-09-25T13:47:50.628Z,79.75
2022-09-25T13:51:36.967Z,80.77
2022-09-25T13:55:20.227Z,81.70
2022-09-25T13:59:25.445Z,82.46
2022-09-25T14:03:32.238Z,82.73
2022-09-25T14:07:23.692Z,84.00
2022-09-25T14:11:10.114Z,84.84
2022-09-25T14:14:57.291Z,85.18
2022-09-25T14:18:43.838Z,86.72
2022-09-25T14:22:33.058Z,86.91
2022-09-25T14:26:21.552Z,86.42
2022-09-25T14:30:10.959Z,87.15
2022-09-25T14:34:17.518Z,87.65
2022-09-25T14:38:14.017Z,81.98
2022-09-25T14:42:35.630Z,81.49
2022-09-25T14:46:20.862Z,81.51
2022-09-25T14:50:04.552Z,80.56
2022-09-25T14:53:49.797Z,80.91
2022-09-25T14:57:38.174Z,80.47
2022-09-25T15:01:27.563Z,81.51
2022-09-25T15:05:29.037Z,81.37
2022-09-25T15:09:29.354Z,78.61
2022-09-25T15:13:15.901Z,78.35
2022-09-25T15:17:17.331Z,79.21
2022-09-25T15:21:01.598Z,79.29
2022-09-25T15:24:48.442Z,78.01
2022-09-25T15:28:34.289Z,78.53
2022-09-25T15:32:23.488Z,79.77
2022-09-25T15:36:16.066Z,78.73
2022-09-25T15:40:02.350Z,77.78
2022-09-25T15:43:45.197Z,78.21
2022-09-25T15:47:50.440Z,79.30
2022-09-25T15:51:36.055Z,79.15
2022-09-25T15:55:19.176Z,78.29
2022-09-25T15:59:03.881Z,77.48
2022-09-25T16:03:09.799Z,78.66
2022-09-25T16:06:52.502Z,76.94
2022-09-25T16:10:35.546Z,77.60
2022-09-25T16:14:22.524Z,77.82
2022-09-25T16:18:27.402Z,78.43
2022-09-25T16:22:16.721Z,78.61
2022-09-25T16:26:00.098Z,79.34
2022-09-25T16:29:45.239Z,80.15
2022-09-25T16:33:34.478Z,80.12
2022-09-25T16:37:21.884Z,79.46
2022-09-25T16:41:05.865Z,80.71
2022-09-25T16:44:49.813Z,81.85
2022-09-25T16:48:39.732Z,82.46
2022-09-25T16:52:24.074Z,82.73
2022-09-25T16:56:07.056Z,83.81
2022-09-25T16:59:50.194Z,84.60
2022-09-25T17:03:49.824Z,85.68
2022-09-25T17:07:32.846Z,87.00
2022-09-25T17:11:16.767Z,87.71
2022-09-25T17:14:59.725Z,89.27
2022-09-25T17:18:43.897Z,90.02
2022-09-25T17:22:30.300Z,90.27
2022-09-25T17:26:18.410Z,90.38
2022-09-25T17:30:01.523Z,91.04
2022-09-25T17:33:46.437Z,92.08
2022-09-25T17:37:29.157Z,91.51
2022-09-25T17:41:18.226Z,91.89
2022-09-25T17:45:01.599Z,92.64
2022-09-25T17:48:50.146Z,93.49
2022-09-25T17:52:36.159Z,93.90
2022-09-25T17:56:20.960Z,93.65
2022-09-25T18:00:05.193Z,94.24
2022-09-25T18:03:51.244Z,94.51
2022-09-25T18:07:34.105Z,95.23
2022-09-25T18:11:17.679Z,95.81
2022-09-25T18:15:00.886Z,96.48
2022-09-25T18:19:01.326Z,95.94
2022-09-25T18:22:47.534Z,96.03
2022-09-25T18:26:31.560Z,95.25
2022-09-25T18:30:24.121Z,95.41
2022-09-25T18:34:07.238Z,95.66
2022-09-25T18:37:51.594Z,95.60
2022-09-25T18:41:38.039Z,96.15
2022-09-25T18:45:22.003Z,97.57
2022-09-25T18:49:08.665Z,97.20
2022-09-25T18:52:53.074Z,97.29
2022-09-25T18:56:36.205Z,98.30
2022-09-25T19:00:20.541Z,98.85
2022-09-25T19:04:07.576Z,99.17
2022-09-25T19:07:53.417Z,99.74
2022-09-25T19:11:36.533Z,100.00
2022-09-25T19:15:28.874Z,100.00
2022-09-25T19:19:18.714Z,100.00
2022-09-25T19:23:09.799Z,100.00
2022-09-25T19:26:52.671Z,99.92
2022-09-25T19:30:36.946Z,99.75
2022-09-25T19:34:21.942Z,98.45
2022-09-25T19:38:11.780Z,98.51
2022-09-25T19:41:58.040Z,99.28
2022-09-25T19:45:43.611Z,99.58
2022-09-25T19:49:27.193Z,100.00
2022-09-25T19:53:12.030Z,100.00
2022-09-25T19:56:55.871Z,100.00
2022-09-25T20:00:41.935Z,100.00
2022-09-25T20:04:27.329Z,100.00
2022-09-25T20:08:14.737Z,99.96
2022-09-25T20:11:57.543Z,99.54
2022-09-25T20:15:42.210Z,97.91
2022-09-25T20:19:27.722Z,97.55
2022-09-25T20:23:13.223Z,98.37
2022-09-25T20:26:56.685Z,97.09
2022-09-25T20:30:39.471Z,98.87
2022-09-25T20:34:22.381Z,100.00
2022-09-25T20:38:07.296Z,100.00
2022-09-25T20:41:51.713Z,100.00
2022-09-25T20:45:34.513Z,100.00
2022-09-25T20:49:20.902Z,100.00
2022-09-25T20:53:03.930Z,100.00
2022-09-25T20:56:46.892Z,100.00
2022-09-25T21:00:32.615Z,100.00
2022-09-25T21:04:18.411Z,100.00
2022-09-25T21:08:03.215Z,100.00
2022-09-25T21:11:48.536Z,100.00
2022-09-25T21:15:35.534Z,99.48
2022-09-25T21:19:20.858Z,99.42
2022-09-25T21:23:10.293Z,100.00
2022-09-25T21:26:53.354Z,100.00
2022-09-25T21:30:38.758Z,100.00
2022-09-25T21:34:22.252Z,100.00
2022-09-25T21:38:05.164Z,98.79
2022-09-25T21:41:50.974Z,98.71
2022-09-25T21:45:33.885Z,99.46
2022-09-25T21:49:27.384Z,99.21
2022-09-25T21:53:10.166Z,99.98
2022-09-25T21:56:54.379Z,99.37
2022-09-25T22:00:37.277Z,100.00
2022-09-25T22:04:27.392Z,99.51
2022-09-25T22:08:16.319Z,98.10
2022-09-25T22:11:59.697Z,96.13
2022-09-25T22:15:42.456Z,98.28
2022-09-25T22:19:27.956Z,98.50
2022-09-25T22:23:10.771Z,98.28
2022-09-25T22:26:54.664Z,97.71
2022-09-25T22:30:39.285Z,97.43
2022-09-25T22:34:24.093Z,97.78
2022-09-25T22:38:08.266Z,99.08
2022-09-25T22:41:54.263Z,99.41
2022-09-25T22:45:37.308Z,99.23
2022-09-25T22:49:20.449Z,99.66
2022-09-25T22:53:04.318Z,100.00
2022-09-25T22:56:48.388Z,100.00
2022-09-25T23:00:31.304Z,100.00
2022-09-25T23:04:16.259Z,100.00
2022-09-25T23:07:59.018Z,100.00
2022-09-25T23:11:42.567Z,100.00
2022-09-25T23:15:26.902Z,100.00
2022-09-25T23:19:09.782Z,100.00
2022-09-25T23:22:52.881Z,100.00
2022-09-25T23:26:35.974Z,100.00
2022-09-25T23:30:20.413Z,100.00
2022-09-25T23:34:07.376Z,100.00
2022-09-25T23:37:50.235Z,100.00
2022-09-25T23:41:34.383Z,100.00
2022-09-25T23:45:20.019Z,100.00
2022-09-25T23:49:08.285Z,100.00
2022-09-25T23:52:51.517Z,100.00
2022-09-25T23:56:36.591Z,100.00
